Time;durP1;ratioP1;P1;durP2;ratioP2;P2;SDS_P1;SDS_P2;PMS_P1;PMS_P2;Temp;Humidity;BMP_temperature;BMP_pressure;BME280_temperature;BME280_humidity;BME280_pressure;Samples;Min_cycle;Max_cycle;Signal;HPM_P1;HPM_P2
2021/11/06 00:00:16;;;;;;;29.65;10.13;;;;;;;5.85;84.52;99749.85;2210535;81;20985;-65
2021/11/06 00:03:20;;;;;;;27.73;10.20;;;;;;;5.86;84.51;99748.09;2188791;81;21022;-64
2021/11/06 00:06:21;;;;;;;26.52;9.90;;;;;;;5.88;84.58;99750.22;2210510;81;21012;-65
2021/11/06 00:09:24;;;;;;;26.77;9.60;;;;;;;5.92;84.48;99750.55;2210499;81;21052;-64
2021/11/06 00:12:26;;;;;;;;;;;;;;;5.92;84.31;99747.95;2213220;81;21016;-64
2021/11/06 00:15:27;;;;;;;28.30;9.43;;;;;;;5.96;84.35;99752.61;2210432;80;20404;-65
2021/11/06 00:18:29;;;;;;;26.10;9.78;;;;;;;5.94;84.43;99759.63;2210400;81;20980;-65
2021/11/06 00:21:30;;;;;;;28.50;9.50;;;;;;;5.92;84.26;99757.06;2210423;81;21011;-65
2021/11/06 00:24:31;;;;;;;23.67;8.33;;;;;;;5.92;84.51;99761.39;2210641;81;20945;-65
2021/11/06 00:27:33;;;;;;;27.40;9.28;;;;;;;5.87;84.89;99761.06;2210412;81;20992;-65
2021/11/06 00:30:34;;;;;;;24.75;9.45;;;;;;;5.84;84.89;99768.12;2210313;81;21032;-65
2021/11/06 00:33:36;;;;;;;24.20;8.68;;;;;;;5.84;85.13;99770.27;2210339;81;21116;-65
2021/11/06 00:36:38;;;;;;;23.53;8.43;;;;;;;5.81;85.07;99776.02;2210488;81;21054;-65
2021/11/06 00:39:39;;;;;;;26.23;8.88;;;;;;;5.80;84.98;99771.23;2210276;81;21047;-64
2021/11/06 00:42:41;;;;;;;24.85;9.18;;;;;;;5.80;85.17;99780.34;2210506;81;21037;-64
2021/11/06 00:45:42;;;;;;;24.80;8.80;;;;;;;5.85;85.10;99777.19;2210281;81;21011;-65
2021/11/06 00:48:43;;;;;;;26.55;9.50;;;;;;;5.90;85.10;99780.97;2210253;81;21540;-65
2021/11/06 00:51:45;;;;;;;23.90;8.95;;;;;;;5.94;84.93;99778.70;2210260;81;20992;-65
2021/11/06 00:54:46;;;;;;;24.25;8.98;;;;;;;5.95;84.91;99773.91;2210127;80;21572;-65
2021/11/06 00:57:48;;;;;;;27.15;10.38;;;;;;;5.96;84.86;99778.22;2210408;80;20945;-65
2021/11/06 01:00:50;;;;;;;29.32;10.32;;;;;;;5.97;84.74;99777.34;2210427;81;21042;-64
2021/11/06 01:03:51;;;;;;;28.12;10.60;;;;;;;5.99;84.48;99778.17;2210260;81;21031;-65
2021/11/06 01:06:53;;;;;;;25.55;9.45;;;;;;;5.96;84.75;99771.71;2210407;81;21023;-65
2021/11/06 01:09:55;;;;;;;25.65;10.03;;;;;;;5.94;84.74;99770.88;2210325;81;20988;-65
2021/11/06 01:12:56;;;;;;;23.62;9.30;;;;;;;5.96;84.53;99769.53;2210273;81;21019;-65
2021/11/06 01:15:57;;;;;;;25.55;8.78;;;;;;;5.95;84.65;99771.30;2210402;80;21012;-65
2021/11/06 01:18:59;;;;;;;24.57;9.03;;;;;;;5.94;84.60;99780.00;2210217;81;20972;-65
2021/11/06 01:22:00;;;;;;;25.23;9.48;;;;;;;5.95;84.50;99777.81;2210247;81;21559;-65
2021/11/06 01:25:02;;;;;;;27.55;9.43;;;;;;;5.97;84.39;99773.86;2210255;81;21025;-65
2021/11/06 01:28:03;;;;;;;23.73;8.50;;;;;;;5.96;84.29;99768.23;2210230;80;21535;-65
2021/11/06 01:31:05;;;;;;;24.67;9.10;;;;;;;5.94;84.24;99757.86;2210266;81;21540;-65
2021/11/06 01:34:06;;;;;;;28.17;9.20;;;;;;;5.92;84.24;99768.78;2210468;81;21027;-65
2021/11/06 01:37:08;;;;;;;23.75;8.90;;;;;;;5.85;83.97;99757.66;2210347;80;21000;-65
2021/11/06 01:40:10;;;;;;;27.10;10.08;;;;;;;5.80;83.79;99763.89;2210419;81;20993;-65
2021/11/06 01:43:11;;;;;;;24.23;8.90;;;;;;;5.69;83.96;99778.50;2210245;81;21115;-65
2021/11/06 01:46:12;;;;;;;24.87;9.50;;;;;;;5.61;84.20;99778.67;2210199;81;21551;-65
2021/11/06 01:49:15;;;;;;;25.97;9.65;;;;;;;5.58;84.09;99774.02;2210131;81;21060;-65
2021/11/06 01:52:18;;;;;;;25.82;9.40;;;;;;;5.56;84.04;99772.75;2210282;81;21039;-65
2021/11/06 01:55:19;;;;;;;26.02;9.33;;;;;;;5.55;84.57;99769.27;2209941;81;21614;-65
2021/11/06 01:58:21;;;;;;;26.12;8.60;;;;;;;5.51;84.48;99774.60;2210306;80;21019;-65
2021/11/06 02:01:23;;;;;;;23.85;8.83;;;;;;;5.48;84.97;99777.28;2210182;81;20984;-65
2021/11/06 02:04:24;;;;;;;24.65;8.45;;;;;;;5.43;84.81;99768.30;2210287;81;21100;-65
2021/11/06 02:07:26;;;;;;;25.32;8.25;;;;;;;5.42;84.47;99776.98;2210199;80;21488;-65
2021/11/06 02:10:27;;;;;;;23.05;8.70;;;;;;;5.41;84.79;99774.43;2210032;81;21020;-65
2021/11/06 02:13:30;;;;;;;25.70;8.93;;;;;;;5.43;84.82;99772.20;2210274;81;21658;-65
2021/11/06 02:16:32;;;;;;;23.67;7.83;;;;;;;5.47;84.96;99771.20;2210281;81;20984;-65
2021/11/06 02:19:34;;;;;;;28.83;10.10;;;;;;;5.49;85.24;99768.59;2210115;81;21096;-65
2021/11/06 02:22:36;;;;;;;27.13;9.38;;;;;;;5.50;85.08;99772.45;2210012;81;21012;-65
2021/11/06 02:25:37;;;;;;;31.30;12.53;;;;;;;5.54;84.87;99771.92;2210154;81;21467;-65
2021/11/06 02:28:39;;;;;;;28.30;10.80;;;;;;;5.52;84.60;99768.05;2210173;81;21063;-65
2021/11/06 02:31:40;;;;;;;26.95;9.00;;;;;;;5.54;84.52;99770.62;2210180;81;21578;-65
2021/11/06 02:34:42;;;;;;;23.07;8.10;;;;;;;5.52;84.54;99765.45;2210371;81;20980;-65
2021/11/06 02:37:43;;;;;;;24.35;8.58;;;;;;;5.50;84.55;99768.98;2210162;80;21017;-65
2021/11/06 02:40:45;;;;;;;23.73;8.33;;;;;;;5.50;84.56;99772.45;2210317;80;20972;-65
2021/11/06 02:43:46;;;;;;;23.30;8.58;;;;;;;5.49;84.29;99773.34;2210172;81;21017;-65
2021/11/06 02:46:48;;;;;;;27.90;8.20;;;;;;;5.48;84.75;99772.08;2210177;81;21028;-65
2021/11/06 02:49:49;;;;;;;23.35;7.75;;;;;;;5.49;84.69;99777.24;2209852;81;21091;-65
2021/11/06 02:52:50;;;;;;;24.43;7.60;;;;;;;5.51;84.75;99778.50;2210126;81;21539;-65
2021/11/06 02:55:52;;;;;;;23.40;7.70;;;;;;;5.42;84.47;99756.17;2210091;80;21107;-65
2021/11/06 02:58:53;;;;;;;23.60;7.60;;;;;;;5.50;84.68;99772.45;2210165;80;21036;-64
2021/11/06 03:01:55;;;;;;;25.30;7.87;;;;;;;5.53;84.53;99774.98;2210313;80;20953;-65
2021/11/06 03:04:56;;;;;;;25.80;7.60;;;;;;;5.59;84.57;99773.09;2210175;81;21084;-64
2021/11/06 03:07:58;;;;;;;21.93;7.17;;;;;;;5.63;84.35;99783.41;2210250;81;21060;-65
2021/11/06 03:10:59;;;;;;;25.40;7.33;;;;;;;5.66;84.41;99778.13;2210415;80;21060;-65
2021/11/06 03:14:01;;;;;;;20.82;6.90;;;;;;;5.68;84.18;99777.63;2210225;81;21527;-64
2021/11/06 03:17:02;;;;;;;20.85;6.45;;;;;;;5.67;83.93;99785.48;2210278;81;21039;-65
2021/11/06 03:20:04;;;;;;;20.80;6.78;;;;;;;5.62;83.64;99778.25;2210373;80;21479;-65
2021/11/06 03:23:05;;;;;;;21.55;6.55;;;;;;;5.58;83.43;99781.82;2210534;81;20941;-65
2021/11/06 03:26:06;;;;;;;21.33;6.90;;;;;;;5.47;83.41;99798.53;2210394;81;21026;-65
2021/11/06 03:29:08;;;;;;;25.65;7.58;;;;;;;5.42;83.66;99790.00;2210432;81;20993;-65
2021/11/06 03:32:09;;;;;;;23.98;7.80;;;;;;;5.42;83.63;99789.16;2210346;81;20989;-65
2021/11/06 03:35:11;;;;;;;22.48;6.85;;;;;;;5.38;83.85;99802.21;2210435;81;21056;-65
2021/11/06 03:38:13;;;;;;;21.77;7.33;;;;;;;5.36;83.94;99810.52;2210726;80;20980;-65
2021/11/06 03:41:15;;;;;;;21.65;7.42;;;;;;;5.34;84.18;99815.34;2210271;81;21000;-64
2021/11/06 03:44:16;;;;;;;24.27;8.03;;;;;;;5.36;84.23;99803.17;2210614;80;21032;-65
2021/11/06 03:47:18;;;;;;;21.35;7.37;;;;;;;5.36;84.24;99809.22;2210335;81;21652;-65
2021/11/06 03:50:19;;;;;;;22.40;7.58;;;;;;;5.37;84.02;99816.56;2210398;81;21004;-64
2021/11/06 03:53:21;;;;;;;21.75;7.45;;;;;;;5.34;83.75;99816.22;2210308;81;20957;-65
2021/11/06 03:56:23;;;;;;;23.83;7.62;;;;;;;5.29;83.55;99817.21;2210197;80;21037;-65
2021/11/06 03:59:25;;;;;;;23.32;7.35;;;;;;;5.26;83.90;99821.16;2210437;80;21051;-65
2021/11/06 04:02:26;;;;;;;22.75;7.58;;;;;;;5.26;84.08;99819.86;2210417;81;20972;-65
2021/11/06 04:05:28;;;;;;;23.27;7.95;;;;;;;5.26;84.11;99821.16;2210431;81;21024;-65
2021/11/06 04:08:29;;;;;;;23.90;7.40;;;;;;;5.29;83.94;99818.05;2210235;80;20957;-64
2021/11/06 04:11:31;;;;;;;22.95;7.70;;;;;;;5.32;83.75;99811.48;2210404;81;20988;-65
2021/11/06 04:17:37;;;;;;;22.00;7.97;;;;;;;5.36;84.07;99814.88;2189086;81;21012;-65
2021/11/06 04:23:43;;;;;;;24.00;8.48;;;;;;;5.40;84.05;99816.94;2188790;81;21484;-65
2021/11/06 04:26:45;;;;;;;23.10;8.23;;;;;;;5.44;83.95;99818.58;2210291;80;20988;-65
2021/11/06 04:29:46;;;;;;;26.65;9.05;;;;;;;5.47;83.78;99830.22;2210463;81;21013;-65
2021/11/06 04:32:48;;;;;;;23.32;8.63;;;;;;;5.48;83.67;99831.48;2210551;81;21025;-64
2021/11/06 04:35:50;;;;;;;23.57;8.68;;;;;;;5.48;83.70;99832.78;2210169;81;21040;-65
2021/11/06 04:38:51;;;;;;;26.48;9.43;;;;;;;5.44;83.72;99843.30;2210622;81;20992;-64
2021/11/06 04:41:53;;;;;;;25.20;9.73;;;;;;;5.44;83.71;99835.04;2210409;81;20961;-65
2021/11/06 04:44:54;;;;;;;25.12;9.30;;;;;;;5.44;83.53;99838.94;2210376;80;21516;-64
2021/11/06 04:47:56;;;;;;;24.33;8.90;;;;;;;5.45;83.56;99846.33;2210121;81;21096;-64
2021/11/06 04:50:57;;;;;;;25.57;9.88;;;;;;;5.43;83.65;99850.69;2210281;80;21044;-64
2021/11/06 04:53:59;;;;;;;27.17;10.10;;;;;;;5.45;83.56;99852.83;2210260;81;21571;-64
2021/11/06 04:57:00;;;;;;;25.50;9.78;;;;;;;5.47;83.64;99856.23;2210005;81;21075;-64
2021/11/06 05:00:02;;;;;;;24.60;9.10;;;;;;;5.47;83.63;99855.78;2210259;80;21499;-64
2021/11/06 05:03:03;;;;;;;24.98;9.45;;;;;;;5.48;83.53;99856.20;2210449;80;21076;-64
2021/11/06 05:06:05;;;;;;;25.10;9.57;;;;;;;5.50;83.37;99862.23;2210547;81;21048;-64
2021/11/06 05:09:06;;;;;;;25.88;10.00;;;;;;;5.48;83.32;99861.86;2210239;81;21048;-64
2021/11/06 05:12:08;;;;;;;25.25;9.58;;;;;;;5.47;83.27;99869.25;2210516;81;20949;-64
2021/11/06 05:15:09;;;;;;;26.10;9.90;;;;;;;5.43;83.26;99867.18;2210291;80;21028;-64
2021/11/06 05:18:13;;;;;;;25.77;10.23;;;;;;;5.43;83.39;99867.18;2210118;81;21623;-64
2021/11/06 05:21:14;;;;;;;28.07;10.45;;;;;;;5.42;83.33;99868.52;2210266;81;22205;-64
2021/11/06 05:24:16;;;;;;;25.00;9.95;;;;;;;5.40;83.36;99875.03;2210496;81;21055;-64
2021/11/06 05:27:18;;;;;;;24.37;9.48;;;;;;;5.40;83.37;99875.48;2210706;81;21016;-64
2021/11/06 05:30:20;;;;;;;25.12;9.33;;;;;;;5.40;83.41;99880.23;2210035;81;21000;-65
2021/11/06 05:33:22;;;;;;;;;;;;;;;5.39;83.37;99885.05;2213157;80;20977;-64
2021/11/06 05:36:24;;;;;;;25.82;9.55;;;;;;;5.38;83.21;99885.47;2210260;80;20153;-64
2021/11/06 05:39:25;;;;;;;26.73;9.83;;;;;;;5.36;83.30;99885.97;2210286;81;20980;-64
2021/11/06 05:42:27;;;;;;;27.77;10.18;;;;;;;5.37;83.12;99890.29;2210342;81;20992;-64
2021/11/06 05:45:28;;;;;;;26.33;11.25;;;;;;;5.34;83.03;99887.77;2210477;81;20977;-64
2021/11/06 05:48:30;;;;;;;28.50;10.48;;;;;;;5.31;82.90;99889.56;2210201;81;20971;-64
2021/11/06 05:51:31;;;;;;;28.80;11.25;;;;;;;5.26;82.92;99897.90;2210207;81;21618;-64
2021/11/06 05:54:33;;;;;;;29.00;11.15;;;;;;;5.21;82.68;99901.91;2210338;81;20953;-64
2021/11/06 05:57:35;;;;;;;27.93;11.50;;;;;;;5.14;82.61;99906.83;2210096;81;21016;-64
2021/11/06 06:00:37;;;;;;;;;;;;;;;5.13;82.42;99907.71;2212806;81;21087;-64
2021/11/06 06:03:38;;;;;;;25.43;10.65;;;;;;;5.11;82.42;99905.60;2210355;81;20105;-64
2021/11/06 06:06:40;;;;;;;25.52;9.85;;;;;;;5.07;82.37;99908.73;2210201;81;21023;-65
2021/11/06 06:09:41;;;;;;;25.32;9.68;;;;;;;5.00;82.36;99904.09;2210291;81;21503;-65
2021/11/06 06:12:44;;;;;;;25.95;9.60;;;;;;;4.97;82.31;99911.95;2210182;81;20961;-65
2021/11/06 06:15:45;;;;;;;27.00;10.70;;;;;;;4.96;82.46;99918.49;2210279;81;21019;-64
2021/11/06 06:18:47;;;;;;;27.30;10.98;;;;;;;4.95;82.42;99920.67;2209964;81;21495;-65
2021/11/06 06:21:49;;;;;;;27.13;10.65;;;;;;;4.99;82.36;99925.77;2210605;81;21012;-65
2021/11/06 06:24:50;;;;;;;28.17;9.95;;;;;;;5.04;82.49;99928.27;2210229;81;21061;-64
2021/11/06 06:27:51;;;;;;;24.15;9.78;;;;;;;5.06;82.42;99927.81;2210095;81;21096;-64
2021/11/06 06:30:53;;;;;;;25.57;9.60;;;;;;;5.14;82.32;99923.73;2210147;81;21107;-64
2021/11/06 06:33:54;;;;;;;24.65;9.63;;;;;;;5.22;82.25;99924.89;2210175;81;21536;-64
2021/11/06 06:36:56;;;;;;;24.65;8.83;;;;;;;5.28;82.25;99932.56;2210221;80;21029;-64
2021/11/06 06:39:57;;;;;;;24.27;9.33;;;;;;;5.32;82.17;99934.20;2210505;81;21598;-64
2021/11/06 06:42:59;;;;;;;25.65;9.65;;;;;;;5.36;82.17;99930.20;2210166;81;21764;-64
2021/11/06 06:46:01;;;;;;;25.63;9.67;;;;;;;5.52;81.88;99932.02;2210782;81;21480;-64
2021/11/06 06:49:02;;;;;;;24.52;8.75;;;;;;;5.52;81.88;99932.02;2210377;80;21012;-64
2021/11/06 06:52:04;;;;;;;23.40;8.33;;;;;;;5.62;81.60;99940.47;2210330;81;21004;-64
2021/11/06 06:55:05;;;;;;;24.00;9.38;;;;;;;5.73;81.45;99939.78;2210052;81;21028;-64
2021/11/06 06:58:07;;;;;;;23.27;8.28;;;;;;;5.88;81.27;99946.82;2210118;80;20981;-64
2021/11/06 07:01:08;;;;;;;24.75;8.90;;;;;;;6.06;80.79;99941.63;2210127;81;21565;-64
2021/11/06 07:04:10;;;;;;;22.58;8.30;;;;;;;6.22;80.80;99946.88;2210383;81;20985;-64
2021/11/06 07:07:11;;;;;;;22.93;8.63;;;;;;;6.41;80.25;99946.41;2210372;81;21577;-64
2021/11/06 07:10:12;;;;;;;22.45;8.00;;;;;;;6.49;78.83;99953.56;2210450;81;20989;-64
2021/11/06 07:13:19;;;;;;;24.45;8.30;;;;;;;6.61;78.96;99949.80;2210356;81;21000;-64
2021/11/06 07:16:17;;;;;;;21.45;7.58;;;;;;;6.82;78.86;99951.41;2188887;81;21531;-65
2021/11/06 07:19:19;;;;;;;21.33;7.15;;;;;;;7.04;77.31;99949.91;2210367;81;21077;-64
2021/11/06 07:22:21;;;;;;;24.30;8.23;;;;;;;7.22;76.33;99958.95;2210081;81;21511;-64
2021/11/06 07:25:22;;;;;;;24.43;8.18;;;;;;;7.28;76.60;99953.57;2210422;80;20965;-64
2021/11/06 07:28:24;;;;;;;23.50;8.00;;;;;;;7.24;75.79;99958.91;2210276;80;21020;-65
2021/11/06 07:31:25;;;;;;;22.82;7.47;;;;;;;7.21;76.17;99952.47;2210362;81;21020;-64
2021/11/06 07:34:26;;;;;;;22.20;8.58;;;;;;;7.26;75.44;99972.78;2210271;81;20965;-64
2021/11/06 07:37:28;;;;;;;21.77;7.45;;;;;;;7.29;76.62;99962.24;2210296;80;21480;-64
2021/11/06 07:40:30;;;;;;;22.70;7.70;;;;;;;7.25;76.54;99961.46;2210447;81;21040;-64
2021/11/06 07:43:33;;;;;;;22.58;7.83;;;;;;;7.23;75.52;99965.05;2210162;80;21563;-64
2021/11/06 07:46:34;;;;;;;23.32;8.75;;;;;;;7.26;76.08;99970.17;2188597;81;20969;-64
2021/11/06 07:49:36;;;;;;;21.97;7.40;;;;;;;7.33;76.08;99957.80;2210108;81;21044;-65
2021/11/06 07:52:37;;;;;;;21.87;7.37;;;;;;;7.39;75.21;99958.92;2209916;81;21948;-64
2021/11/06 07:55:39;;;;;;;23.12;7.97;;;;;;;7.41;75.35;99955.80;2210378;81;21000;-64
2021/11/06 07:58:40;;;;;;;21.52;7.83;;;;;;;7.45;75.39;99970.47;2220009;80;21056;-64
2021/11/06 08:01:41;;;;;;;23.77;7.47;;;;;;;7.45;74.96;99958.72;2220747;80;21036;-64
2021/11/06 08:04:43;;;;;;;21.85;7.58;;;;;;;7.54;75.82;99958.47;2220696;80;20988;-64
2021/11/06 08:07:44;;;;;;;22.40;7.62;;;;;;;7.67;75.41;99961.55;2220792;80;21585;-64
2021/11/06 08:10:46;;;;;;;21.02;6.95;;;;;;;7.73;74.97;99969.19;2221109;80;21021;-64
2021/11/06 08:13:48;;;;;;;20.25;7.00;;;;;;;8.02;74.51;99966.57;2220519;80;21563;-64
2021/11/06 08:16:50;;;;;;;20.88;6.25;;;;;;;8.42;73.35;99959.98;2220697;80;20984;-64
2021/11/06 08:19:52;;;;;;;;;;;;;;;8.43;73.30;99953.87;2223165;80;21610;-64
2021/11/06 08:22:53;;;;;;;18.55;6.20;;;;;;;8.44;72.61;99960.38;2220615;80;20107;-64
2021/11/06 08:25:55;;;;;;;19.37;5.80;;;;;;;8.53;73.02;99960.52;2220873;80;21555;-64
2021/11/06 08:28:56;;;;;;;20.95;6.75;;;;;;;8.64;70.73;99962.31;2220583;80;21040;-64
2021/11/06 08:31:58;;;;;;;18.98;5.90;;;;;;;8.76;70.53;99974.56;2220554;80;21068;-64
2021/11/06 08:35:00;;;;;;;19.67;5.80;;;;;;;8.88;72.02;99975.45;2220607;80;21414;-64
2021/11/06 08:38:02;;;;;;;19.00;5.97;;;;;;;8.92;70.41;99980.97;2220508;80;21557;-64
2021/11/06 08:41:03;;;;;;;21.33;6.65;;;;;;;9.03;69.96;99983.66;2220820;80;21016;-64
2021/11/06 08:44:05;;;;;;;18.77;5.47;;;;;;;9.01;69.16;99988.95;2220636;80;21530;-64
2021/11/06 08:47:06;;;;;;;20.80;5.92;;;;;;;8.87;67.70;99987.28;2220459;80;21068;-64
2021/11/06 08:50:08;;;;;;;18.45;5.58;;;;;;;8.95;69.94;99990.02;2220808;80;21071;-65
2021/11/06 08:53:09;;;;;;;18.55;5.58;;;;;;;9.03;68.75;99987.58;2220721;80;21071;-64
2021/11/06 08:56:11;;;;;;;21.70;5.85;;;;;;;9.14;69.15;99991.51;2220199;80;21609;-65
2021/11/06 08:59:13;;;;;;;20.75;6.72;;;;;;;9.16;68.85;99989.67;2221021;80;21068;-64
2021/11/06 09:02:16;;;;;;;18.48;5.78;;;;;;;9.26;69.83;99973.64;2220347;80;21555;-64
2021/11/06 09:05:17;;;;;;;19.80;6.58;;;;;;;9.19;69.21;99979.55;2220695;80;21084;-64
2021/11/06 09:08:19;;;;;;;18.70;5.37;;;;;;;9.30;69.44;99983.09;2220617;80;21560;-64
2021/11/06 09:11:20;;;;;;;19.05;6.17;;;;;;;9.45;68.35;99984.27;2220480;80;21115;-64
2021/11/06 09:14:22;;;;;;;19.12;5.90;;;;;;;9.61;67.66;99989.77;2220484;80;21577;-64
2021/11/06 09:17:24;;;;;;;19.12;5.92;;;;;;;9.68;68.45;99977.71;2220650;80;21059;-64
2021/11/06 09:20:25;;;;;;;19.57;5.20;;;;;;;9.71;67.16;99992.00;2220456;80;21048;-64
2021/11/06 09:23:26;;;;;;;18.32;5.83;;;;;;;9.75;66.36;99974.84;2220636;80;21032;-65
2021/11/06 09:26:28;;;;;;;18.75;5.83;;;;;;;9.62;65.77;99974.00;2220491;80;21036;-64
2021/11/06 09:29:29;;;;;;;19.45;5.55;;;;;;;9.74;66.34;99983.17;2220581;80;21051;-64
2021/11/06 09:32:31;;;;;;;17.82;5.20;;;;;;;9.80;64.47;99989.94;2220504;80;21083;-65
2021/11/06 09:35:32;;;;;;;19.60;5.23;;;;;;;9.84;64.17;99987.13;2220783;80;21519;-64
2021/11/06 09:38:34;;;;;;;19.80;5.17;;;;;;;9.91;63.12;99996.05;2220730;80;21036;-64
2021/11/06 09:41:35;;;;;;;18.25;5.33;;;;;;;9.92;64.67;99984.20;2220347;80;21678;-65
2021/11/06 09:44:37;;;;;;;18.95;5.08;;;;;;;9.96;65.03;99968.75;2220621;80;21032;-64
2021/11/06 09:47:43;;;;;;;16.52;4.90;;;;;;;9.97;64.38;99974.39;2220623;80;21072;-65
2021/11/06 09:50:42;;;;;;;17.12;4.62;;;;;;;10.05;64.27;99990.64;2190234;80;21494;-65
2021/11/06 09:53:43;;;;;;;15.68;3.80;;;;;;;10.18;63.71;99967.88;2220604;80;21027;-64
2021/11/06 09:56:44;;;;;;;16.25;4.37;;;;;;;10.21;61.92;99971.67;2219176;80;21128;-65
2021/11/06 09:59:46;;;;;;;15.20;3.62;;;;;;;10.08;61.90;99963.92;2210411;81;21040;-64
2021/11/06 10:02:50;;;;;;;14.13;3.70;;;;;;;10.15;60.63;99966.69;2210621;80;21063;-64
2021/11/06 10:05:51;;;;;;;14.90;3.62;;;;;;;10.23;59.73;99957.59;2188889;81;21012;-64
2021/11/06 10:08:52;;;;;;;13.43;3.90;;;;;;;10.07;59.75;99953.91;2210436;81;21087;-64
2021/11/06 10:11:55;;;;;;;17.87;4.60;;;;;;;10.17;59.92;99965.72;2210446;80;21071;-64
2021/11/06 10:14:57;;;;;;;16.20;4.47;;;;;;;10.20;60.57;99961.66;2210207;80;21028;-64
2021/11/06 10:17:58;;;;;;;13.98;4.10;;;;;;;10.34;60.41;99951.07;2210150;81;21518;-64
2021/11/06 10:20:59;;;;;;;17.67;4.70;;;;;;;10.36;59.55;99959.74;2210418;81;21053;-64
2021/11/06 10:24:01;;;;;;;15.97;4.53;;;;;;;10.52;60.79;99962.57;2210424;80;21126;-64
2021/11/06 10:27:03;;;;;;;16.93;4.47;;;;;;;10.61;58.36;99962.16;2210397;81;21584;-64
2021/11/06 10:30:04;;;;;;;15.70;4.40;;;;;;;10.59;60.59;99953.52;2210550;81;20992;-64
2021/11/06 10:33:06;;;;;;;18.42;4.92;;;;;;;10.81;59.47;99963.92;2210333;81;20958;-65
2021/11/06 10:36:08;;;;;;;17.80;5.03;;;;;;;10.86;60.08;99967.64;2210474;80;21048;-65
2021/11/06 10:39:10;;;;;;;14.33;4.10;;;;;;;10.82;59.91;99947.70;2209931;81;21083;-65
2021/11/06 10:42:11;;;;;;;15.30;4.28;;;;;;;10.72;57.84;99961.23;2210457;80;21068;-65
2021/11/06 10:45:13;;;;;;;17.48;4.80;;;;;;;10.52;58.83;99958.16;2210417;81;21045;-64
2021/11/06 10:48:15;;;;;;;17.37;4.67;;;;;;;10.50;60.14;99932.91;2210519;80;21040;-65
2021/11/06 10:51:18;;;;;;;15.05;4.40;;;;;;;10.60;60.26;99935.52;2210183;81;21084;-64
2021/11/06 10:54:19;;;;;;;16.55;4.47;;;;;;;10.48;59.00;99942.63;2209984;81;21068;-64
2021/11/06 10:57:21;;;;;;;17.67;4.77;;;;;;;10.46;60.60;99937.89;2210252;80;21087;-65
2021/11/06 11:00:22;;;;;;;17.45;4.83;;;;;;;10.67;60.49;99924.31;2210643;81;21019;-64
2021/11/06 11:03:24;;;;;;;18.25;4.67;;;;;;;10.90;61.02;99924.16;2210455;81;20930;-64
2021/11/06 11:09:29;;;;;;;15.08;4.47;;;;;;;10.79;59.16;99941.28;2188749;81;21020;-64
2021/11/06 11:12:31;;;;;;;17.13;4.90;;;;;;;10.80;58.74;99923.31;2210560;80;21582;-64
2021/11/06 11:15:32;;;;;;;17.97;5.40;;;;;;;10.99;58.85;99928.58;2210673;80;21032;-64
2021/11/06 11:18:33;;;;;;;19.87;5.65;;;;;;;10.97;57.77;99938.31;2210507;81;20953;-64
2021/11/06 11:21:35;;;;;;;17.13;5.40;;;;;;;11.13;58.31;99924.87;2210669;80;20941;-65
2021/11/06 11:24:36;;;;;;;20.23;5.85;;;;;;;11.25;58.10;99910.34;2210271;81;20997;-64
2021/11/06 11:27:38;;;;;;;18.67;4.90;;;;;;;11.30;57.92;99918.00;2210362;81;20976;-65
2021/11/06 11:30:39;;;;;;;18.20;5.03;;;;;;;11.25;57.37;99919.06;2210269;81;20989;-64
2021/11/06 11:33:41;;;;;;;18.63;5.40;;;;;;;11.22;58.37;99916.58;2210487;80;21618;-65
2021/11/06 11:36:43;;;;;;;16.30;4.83;;;;;;;11.46;58.42;99899.27;2210738;80;20941;-64
2021/11/06 11:39:45;;;;;;;17.50;5.00;;;;;;;11.54;56.35;99926.51;2210596;81;21492;-64
2021/11/06 11:42:47;;;;;;;17.27;4.97;;;;;;;11.47;58.06;99902.77;2210496;80;21012;-65
2021/11/06 11:45:49;;;;;;;16.70;4.87;;;;;;;11.59;56.51;99909.60;2210712;81;20977;-65
2021/11/06 11:48:51;;;;;;;;;;;;;;;11.35;57.89;99902.86;2213071;81;21248;-64
2021/11/06 11:51:52;;;;;;;14.23;4.30;;;;;;;11.35;57.43;99912.92;2210560;81;20120;-65
2021/11/06 11:54:54;;;;;;;15.50;4.12;;;;;;;11.29;56.03;99915.81;2210765;80;20949;-65
2021/11/06 11:57:56;;;;;;;12.37;3.67;;;;;;;11.39;56.22;99892.16;2210528;81;21024;-65
2021/11/06 12:00:58;;;;;;;17.32;3.85;;;;;;;11.36;55.58;99900.63;2210513;81;21044;-65
2021/11/06 12:04:00;;;;;;;12.85;3.70;;;;;;;11.36;57.33;99884.88;2210705;80;21015;-65
2021/11/06 12:07:01;;;;;;;15.43;4.75;;;;;;;11.44;55.70;99900.66;2210541;80;20968;-64
2021/11/06 12:10:03;;;;;;;16.03;4.03;;;;;;;11.44;56.51;99890.15;2210609;81;21495;-64
2021/11/06 12:13:04;;;;;;;15.65;4.30;;;;;;;11.63;55.76;99886.64;2210815;80;21008;-65
2021/11/06 12:16:06;;;;;;;14.85;3.70;;;;;;;11.66;56.96;99878.60;2210421;81;21008;-64
2021/11/06 12:19:07;;;;;;;16.60;3.90;;;;;;;11.67;56.12;99889.52;2210805;80;20984;-64
2021/11/06 12:22:09;;;;;;;16.15;3.47;;;;;;;11.68;55.23;99884.66;2210734;81;20984;-65
2021/11/06 12:25:11;;;;;;;13.25;3.40;;;;;;;11.45;54.33;99897.59;2210580;80;21004;-65
2021/11/06 12:28:12;;;;;;;11.45;3.40;;;;;;;11.17;55.80;99886.20;2210330;81;21001;-65
2021/11/06 12:31:14;;;;;;;11.95;3.35;;;;;;;11.16;55.47;99882.73;2210681;81;21000;-65
2021/11/06 12:34:15;;;;;;;13.95;3.50;;;;;;;11.26;55.52;99891.89;2210324;81;20973;-64
2021/11/06 12:37:17;;;;;;;15.83;4.08;;;;;;;11.21;57.13;99879.89;2210533;81;21523;-65
2021/11/06 12:40:19;;;;;;;11.50;3.37;;;;;;;11.24;55.38;99906.00;2210292;81;20972;-65
2021/11/06 12:43:21;;;;;;;;;;;;;;;10.95;55.13;99906.02;2212957;81;21034;-65
2021/11/06 12:46:25;;;;;;;16.20;3.87;;;;;;;10.57;56.49;99891.06;2210223;81;20131;-65
2021/11/06 12:49:25;;;;;;;15.88;4.30;;;;;;;10.36;57.86;99887.63;2188781;81;21008;-65
2021/11/06 12:52:27;;;;;;;15.32;3.92;;;;;;;10.23;58.02;99892.04;2210618;81;20976;-65
2021/11/06 12:55:28;;;;;;;13.47;3.50;;;;;;;10.17;59.46;99896.24;2210651;80;21004;-65
2021/11/06 12:58:30;;;;;;;16.60;3.90;;;;;;;10.15;57.53;99899.84;2215233;80;21523;-65
2021/11/06 13:01:31;;;;;;;17.57;4.28;;;;;;;10.10;58.54;99884.31;2220924;80;21048;-64
2021/11/06 13:04:34;;;;;;;17.07;4.10;;;;;;;10.08;58.94;99890.53;2221172;80;21080;-65
2021/11/06 13:07:36;;;;;;;14.20;4.08;;;;;;;10.08;58.44;99883.98;2220737;80;21028;-65
2021/11/06 13:10:39;;;;;;;18.77;4.75;;;;;;;10.17;59.26;99879.64;2220627;80;21024;-65
2021/11/06 13:13:41;;;;;;;23.67;6.05;;;;;;;10.20;59.26;99871.20;2220555;80;21064;-65
2021/11/06 13:16:42;;;;;;;22.13;5.42;;;;;;;10.27;59.46;99869.61;2220465;80;21527;-65
2021/11/06 13:19:44;;;;;;;17.45;4.47;;;;;;;10.27;59.20;99871.80;2220442;80;21064;-64
2021/11/06 13:22:46;;;;;;;15.08;4.08;;;;;;;10.23;59.69;99864.51;2220626;80;21642;-65
2021/11/06 13:25:47;;;;;;;16.60;4.42;;;;;;;10.23;58.94;99881.55;2220801;80;21048;-65
2021/11/06 13:28:49;;;;;;;13.40;3.50;;;;;;;10.20;58.71;99875.57;2220517;80;21084;-65
2021/11/06 13:31:50;;;;;;;17.37;3.92;;;;;;;10.16;58.65;99882.73;2220625;80;21095;-65
2021/11/06 13:34:51;;;;;;;16.42;4.00;;;;;;;10.13;58.96;99882.87;2220485;80;21107;-64
2021/11/06 13:37:53;;;;;;;17.80;4.35;;;;;;;10.08;58.75;99885.28;2220428;80;21512;-65
2021/11/06 13:40:56;;;;;;;16.57;4.30;;;;;;;10.04;58.94;99875.38;2220500;80;21016;-65
2021/11/06 13:43:57;;;;;;;12.13;3.35;;;;;;;10.01;58.92;99875.06;2220534;80;21039;-64
2021/11/06 13:47:00;;;;;;;16.23;4.17;;;;;;;10.00;58.22;99880.38;2220483;80;21028;-65
2021/11/06 13:50:01;;;;;;;18.07;4.03;;;;;;;10.03;59.51;99866.67;2220390;80;21151;-65
2021/11/06 13:53:06;;;;;;;18.07;4.87;;;;;;;10.07;59.61;99877.89;2220306;80;21554;-65
2021/11/06 13:56:07;;;;;;;20.20;4.45;;;;;;;10.17;59.03;99863.91;2190281;80;21009;-65
2021/11/06 13:59:08;;;;;;;17.80;4.17;;;;;;;10.31;58.89;99869.88;2214647;80;21515;-65
2021/11/06 14:02:09;;;;;;;17.37;4.12;;;;;;;10.54;57.92;99861.91;2210600;81;20977;-65
2021/11/06 14:05:11;;;;;;;20.45;5.00;;;;;;;10.61;57.07;99855.06;2210314;81;21518;-65
2021/11/06 14:08:12;;;;;;;17.23;4.22;;;;;;;10.43;57.58;99851.47;2210404;81;21041;-65
2021/11/06 14:11:14;;;;;;;15.55;4.00;;;;;;;10.21;58.26;99855.00;2210308;81;20996;-65
2021/11/06 14:14:15;;;;;;;17.15;4.17;;;;;;;10.05;58.64;99855.64;2210531;81;20977;-66
2021/11/06 14:17:16;;;;;;;17.02;4.25;;;;;;;9.91;58.61;99856.69;2210152;81;21079;-65
2021/11/06 14:20:20;;;;;;;17.92;4.53;;;;;;;9.88;58.59;99862.06;2210310;81;21475;-64